sensor_id;sensor_type;location;lat;lon;timestamp;P1;durP1;ratioP1;P2;durP2;ratioP2
4274;SDS011;2151;50.988;11.068;2023-11-19T00:00:01;113.20;;;4.70;;
4274;SDS011;2151;50.988;11.068;2023-11-19T00:02:28;113.77;;;4.80;;
4274;SDS011;2151;50.988;11.068;2023-11-19T00:04:54;112.70;;;4.70;;
4274;SDS011;2151;50.988;11.068;2023-11-19T00:07:21;112.87;;;4.80;;
4274;SDS011;2151;50.988;11.068;2023-11-19T00:09:52;112.97;;;5.07;;
4274;SDS011;2151;50.988;11.068;2023-11-19T00:12:18;112.77;;;5.10;;
4274;SDS011;2151;50.988;11.068;2023-11-19T00:14:45;113.10;;;4.80;;
4274;SDS011;2151;50.988;11.068;2023-11-19T00:17:11;112.80;;;4.47;;
4274;SDS011;2151;50.988;11.068;2023-11-19T00:19:38;113.17;;;4.80;;
4274;SDS011;2151;50.988;11.068;2023-11-19T00:22:05;112.37;;;4.70;;
4274;SDS011;2151;50.988;11.068;2023-11-19T00:24:32;112.80;;;4.67;;
4274;SDS011;2151;50.988;11.068;2023-11-19T00:26:59;113.20;;;4.90;;
4274;SDS011;2151;50.988;11.068;2023-11-19T00:29:25;112.30;;;4.57;;
4274;SDS011;2151;50.988;11.068;2023-11-19T00:31:52;112.20;;;4.67;;
4274;SDS011;2151;50.988;11.068;2023-11-19T00:34:18;112.73;;;4.67;;
4274;SDS011;2151;50.988;11.068;2023-11-19T00:36:47;112.73;;;4.57;;
4274;SDS011;2151;50.988;11.068;2023-11-19T00:39:14;112.50;;;4.67;;
4274;SDS011;2151;50.988;11.068;2023-11-19T00:41:41;121.67;;;4.67;;
4274;SDS011;2151;50.988;11.068;2023-11-19T00:44:07;112.50;;;4.60;;
4274;SDS011;2151;50.988;11.068;2023-11-19T00:46:34;112.10;;;4.50;;
4274;SDS011;2151;50.988;11.068;2023-11-19T00:49:00;112.87;;;4.93;;
4274;SDS011;2151;50.988;11.068;2023-11-19T00:51:27;113.70;;;4.77;;
4274;SDS011;2151;50.988;11.068;2023-11-19T00:53:53;112.23;;;4.70;;
4274;SDS011;2151;50.988;11.068;2023-11-19T00:56:20;113.17;;;4.63;;
4274;SDS011;2151;50.988;11.068;2023-11-19T00:58:46;112.37;;;4.57;;
4274;SDS011;2151;50.988;11.068;2023-11-19T01:01:14;112.90;;;4.67;;
4274;SDS011;2151;50.988;11.068;2023-11-19T01:03:40;113.00;;;4.53;;
4274;SDS011;2151;50.988;11.068;2023-11-19T01:06:07;113.10;;;4.70;;
4274;SDS011;2151;50.988;11.068;2023-11-19T01:08:34;112.80;;;4.67;;
4274;SDS011;2151;50.988;11.068;2023-11-19T01:11:02;112.40;;;4.57;;
4274;SDS011;2151;50.988;11.068;2023-11-19T01:13:28;113.93;;;4.67;;
4274;SDS011;2151;50.988;11.068;2023-11-19T01:15:56;113.17;;;4.73;;
4274;SDS011;2151;50.988;11.068;2023-11-19T01:18:23;112.57;;;4.63;;
4274;SDS011;2151;50.988;11.068;2023-11-19T01:20:49;112.80;;;4.40;;
4274;SDS011;2151;50.988;11.068;2023-11-19T01:23:16;113.17;;;4.83;;
4274;SDS011;2151;50.988;11.068;2023-11-19T01:25:43;112.80;;;4.87;;
4274;SDS011;2151;50.988;11.068;2023-11-19T01:28:09;112.77;;;4.87;;
4274;SDS011;2151;50.988;11.068;2023-11-19T01:30:36;112.47;;;4.97;;
4274;SDS011;2151;50.988;11.068;2023-11-19T01:33:02;113.07;;;4.90;;
4274;SDS011;2151;50.988;11.068;2023-11-19T01:35:28;113.13;;;5.00;;
4274;SDS011;2151;50.988;11.068;2023-11-19T01:37:55;113.20;;;5.10;;
4274;SDS011;2151;50.988;11.068;2023-11-19T01:40:21;112.80;;;5.00;;
4274;SDS011;2151;50.988;11.068;2023-11-19T01:42:48;112.57;;;4.63;;
4274;SDS011;2151;50.988;11.068;2023-11-19T01:45:21;114.17;;;4.60;;
4274;SDS011;2151;50.988;11.068;2023-11-19T01:47:48;113.40;;;4.97;;
4274;SDS011;2151;50.988;11.068;2023-11-19T01:50:14;112.53;;;4.83;;
4274;SDS011;2151;50.988;11.068;2023-11-19T01:52:41;113.43;;;4.97;;
4274;SDS011;2151;50.988;11.068;2023-11-19T01:55:07;113.20;;;4.97;;
4274;SDS011;2151;50.988;11.068;2023-11-19T01:57:35;112.77;;;5.07;;
4274;SDS011;2151;50.988;11.068;2023-11-19T02:00:04;113.27;;;5.00;;
4274;SDS011;2151;50.988;11.068;2023-11-19T02:02:32;113.03;;;4.80;;
4274;SDS011;2151;50.988;11.068;2023-11-19T02:04:58;112.80;;;4.87;;
4274;SDS011;2151;50.988;11.068;2023-11-19T02:07:26;113.80;;;5.20;;
4274;SDS011;2151;50.988;11.068;2023-11-19T02:09:53;112.80;;;4.87;;
4274;SDS011;2151;50.988;11.068;2023-11-19T02:12:19;112.87;;;4.77;;
4274;SDS011;2151;50.988;11.068;2023-11-19T02:14:47;112.67;;;4.70;;
4274;SDS011;2151;50.988;11.068;2023-11-19T02:17:28;112.50;;;4.70;;
4274;SDS011;2151;50.988;11.068;2023-11-19T02:19:57;112.57;;;4.63;;
4274;SDS011;2151;50.988;11.068;2023-11-19T02:22:24;112.87;;;4.80;;
4274;SDS011;2151;50.988;11.068;2023-11-19T02:24:52;113.37;;;4.80;;
4274;SDS011;2151;50.988;11.068;2023-11-19T02:27:30;113.10;;;4.80;;
4274;SDS011;2151;50.988;11.068;2023-11-19T02:29:57;112.67;;;4.67;;
4274;SDS011;2151;50.988;11.068;2023-11-19T02:32:27;112.87;;;4.90;;
4274;SDS011;2151;50.988;11.068;2023-11-19T02:34:53;112.87;;;4.87;;
4274;SDS011;2151;50.988;11.068;2023-11-19T02:37:20;112.67;;;4.90;;
4274;SDS011;2151;50.988;11.068;2023-11-19T02:39:46;112.77;;;4.83;;
4274;SDS011;2151;50.988;11.068;2023-11-19T02:42:13;112.47;;;4.90;;
4274;SDS011;2151;50.988;11.068;2023-11-19T02:44:43;112.10;;;4.63;;
4274;SDS011;2151;50.988;11.068;2023-11-19T02:47:09;112.67;;;4.80;;
4274;SDS011;2151;50.988;11.068;2023-11-19T02:49:36;112.40;;;4.77;;
4274;SDS011;2151;50.988;11.068;2023-11-19T02:52:03;112.43;;;4.70;;
4274;SDS011;2151;50.988;11.068;2023-11-19T02:54:31;112.67;;;4.57;;
4274;SDS011;2151;50.988;11.068;2023-11-19T02:57:01;112.67;;;4.70;;
4274;SDS011;2151;50.988;11.068;2023-11-19T02:59:29;112.67;;;4.80;;
4274;SDS011;2151;50.988;11.068;2023-11-19T03:02:05;112.33;;;4.60;;
4274;SDS011;2151;50.988;11.068;2023-11-19T03:04:33;111.70;;;4.67;;
4274;SDS011;2151;50.988;11.068;2023-11-19T03:06:59;111.97;;;4.73;;
4274;SDS011;2151;50.988;11.068;2023-11-19T03:09:26;112.10;;;4.73;;
4274;SDS011;2151;50.988;11.068;2023-11-19T03:11:52;112.23;;;4.63;;
4274;SDS011;2151;50.988;11.068;2023-11-19T03:14:19;111.67;;;4.77;;
4274;SDS011;2151;50.988;11.068;2023-11-19T03:16:45;111.60;;;4.57;;
4274;SDS011;2151;50.988;11.068;2023-11-19T03:19:15;111.80;;;4.60;;
4274;SDS011;2151;50.988;11.068;2023-11-19T03:21:51;111.80;;;4.90;;
4274;SDS011;2151;50.988;11.068;2023-11-19T03:24:18;113.00;;;4.70;;
4274;SDS011;2151;50.988;11.068;2023-11-19T03:26:48;112.57;;;4.73;;
4274;SDS011;2151;50.988;11.068;2023-11-19T03:29:16;113.00;;;4.73;;
4274;SDS011;2151;50.988;11.068;2023-11-19T03:31:42;115.10;;;4.63;;
4274;SDS011;2151;50.988;11.068;2023-11-19T03:34:09;118.97;;;4.70;;
4274;SDS011;2151;50.988;11.068;2023-11-19T03:36:36;112.00;;;4.60;;
4274;SDS011;2151;50.988;11.068;2023-11-19T03:39:02;112.67;;;4.77;;
4274;SDS011;2151;50.988;11.068;2023-11-19T03:41:29;112.20;;;4.67;;
4274;SDS011;2151;50.988;11.068;2023-11-19T03:44:07;112.20;;;4.63;;
4274;SDS011;2151;50.988;11.068;2023-11-19T03:46:33;112.30;;;4.50;;
4274;SDS011;2151;50.988;11.068;2023-11-19T03:49:01;112.10;;;4.53;;
4274;SDS011;2151;50.988;11.068;2023-11-19T03:51:28;112.27;;;4.53;;
4274;SDS011;2151;50.988;11.068;2023-11-19T03:53:54;112.47;;;4.60;;
4274;SDS011;2151;50.988;11.068;2023-11-19T03:56:21;112.23;;;4.70;;
4274;SDS011;2151;50.988;11.068;2023-11-19T03:58:47;111.93;;;4.60;;
4274;SDS011;2151;50.988;11.068;2023-11-19T04:01:15;112.90;;;4.67;;
4274;SDS011;2151;50.988;11.068;2023-11-19T04:03:41;112.30;;;4.67;;
4274;SDS011;2151;50.988;11.068;2023-11-19T04:06:11;111.87;;;4.60;;
4274;SDS011;2151;50.988;11.068;2023-11-19T04:08:37;112.17;;;4.43;;
4274;SDS011;2151;50.988;11.068;2023-11-19T04:11:04;111.97;;;4.53;;
4274;SDS011;2151;50.988;11.068;2023-11-19T04:13:31;112.70;;;4.70;;
4274;SDS011;2151;50.988;11.068;2023-11-19T04:15:57;112.10;;;4.60;;
4274;SDS011;2151;50.988;11.068;2023-11-19T04:18:24;112.27;;;4.67;;
4274;SDS011;2151;50.988;11.068;2023-11-19T04:20:50;112.17;;;4.60;;
4274;SDS011;2151;50.988;11.068;2023-11-19T04:23:17;112.80;;;4.50;;
4274;SDS011;2151;50.988;11.068;2023-11-19T04:25:43;111.50;;;4.50;;
4274;SDS011;2151;50.988;11.068;2023-11-19T04:28:10;112.77;;;4.80;;
4274;SDS011;2151;50.988;11.068;2023-11-19T04:30:37;112.07;;;4.60;;
4274;SDS011;2151;50.988;11.068;2023-11-19T04:33:04;113.40;;;4.73;;
4274;SDS011;2151;50.988;11.068;2023-11-19T04:35:30;111.97;;;4.50;;
4274;SDS011;2151;50.988;11.068;2023-11-19T04:37:58;111.60;;;4.47;;
4274;SDS011;2151;50.988;11.068;2023-11-19T04:40:25;112.37;;;4.67;;
4274;SDS011;2151;50.988;11.068;2023-11-19T04:42:52;111.90;;;4.70;;
4274;SDS011;2151;50.988;11.068;2023-11-19T04:45:18;112.60;;;4.50;;
4274;SDS011;2151;50.988;11.068;2023-11-19T04:47:44;111.90;;;4.60;;
4274;SDS011;2151;50.988;11.068;2023-11-19T04:50:11;111.97;;;4.30;;
4274;SDS011;2151;50.988;11.068;2023-11-19T04:52:38;111.70;;;4.67;;
4274;SDS011;2151;50.988;11.068;2023-11-19T04:55:12;111.40;;;4.70;;
4274;SDS011;2151;50.988;11.068;2023-11-19T04:57:40;112.63;;;5.00;;
4274;SDS011;2151;50.988;11.068;2023-11-19T05:00:06;111.83;;;4.43;;
4274;SDS011;2151;50.988;11.068;2023-11-19T05:02:36;111.97;;;4.43;;
4274;SDS011;2151;50.988;11.068;2023-11-19T05:05:03;112.57;;;4.43;;
4274;SDS011;2151;50.988;11.068;2023-11-19T05:07:31;111.80;;;4.37;;
4274;SDS011;2151;50.988;11.068;2023-11-19T05:09:57;111.87;;;4.60;;
4274;SDS011;2151;50.988;11.068;2023-11-19T05:12:24;112.07;;;4.50;;
4274;SDS011;2151;50.988;11.068;2023-11-19T05:14:51;112.67;;;4.40;;
4274;SDS011;2151;50.988;11.068;2023-11-19T05:17:17;111.53;;;4.40;;
4274;SDS011;2151;50.988;11.068;2023-11-19T05:19:45;112.07;;;4.43;;
4274;SDS011;2151;50.988;11.068;2023-11-19T05:22:11;112.37;;;4.67;;
4274;SDS011;2151;50.988;11.068;2023-11-19T05:24:39;112.07;;;4.47;;
4274;SDS011;2151;50.988;11.068;2023-11-19T05:27:07;112.03;;;4.47;;
4274;SDS011;2151;50.988;11.068;2023-11-19T05:29:34;112.40;;;4.83;;
4274;SDS011;2151;50.988;11.068;2023-11-19T05:32:00;112.70;;;4.77;;
4274;SDS011;2151;50.988;11.068;2023-11-19T05:34:27;112.97;;;4.67;;
4274;SDS011;2151;50.988;11.068;2023-11-19T05:36:54;111.70;;;4.50;;
4274;SDS011;2151;50.988;11.068;2023-11-19T05:39:20;111.77;;;4.60;;
4274;SDS011;2151;50.988;11.068;2023-11-19T05:41:46;111.87;;;4.57;;
4274;SDS011;2151;50.988;11.068;2023-11-19T05:44:13;112.07;;;4.47;;
4274;SDS011;2151;50.988;11.068;2023-11-19T05:46:40;111.93;;;4.53;;
4274;SDS011;2151;50.988;11.068;2023-11-19T05:49:10;113.17;;;4.60;;
4274;SDS011;2151;50.988;11.068;2023-11-19T05:51:40;112.37;;;4.90;;
4274;SDS011;2151;50.988;11.068;2023-11-19T05:54:07;111.97;;;4.57;;
4274;SDS011;2151;50.988;11.068;2023-11-19T05:56:34;111.57;;;4.47;;
4274;SDS011;2151;50.988;11.068;2023-11-19T05:59:01;111.23;;;4.30;;
4274;SDS011;2151;50.988;11.068;2023-11-19T06:01:29;111.77;;;4.70;;
4274;SDS011;2151;50.988;11.068;2023-11-19T06:03:56;111.87;;;4.27;;
4274;SDS011;2151;50.988;11.068;2023-11-19T06:06:22;111.93;;;4.47;;
4274;SDS011;2151;50.988;11.068;2023-11-19T06:08:49;126.63;;;4.57;;
4274;SDS011;2151;50.988;11.068;2023-11-19T06:11:16;111.50;;;4.33;;
4274;SDS011;2151;50.988;11.068;2023-11-19T06:13:46;112.17;;;4.50;;
4274;SDS011;2151;50.988;11.068;2023-11-19T06:16:14;112.37;;;4.60;;
4274;SDS011;2151;50.988;11.068;2023-11-19T06:18:40;112.50;;;4.57;;
4274;SDS011;2151;50.988;11.068;2023-11-19T06:21:08;112.20;;;4.53;;
4274;SDS011;2151;50.988;11.068;2023-11-19T06:23:34;112.87;;;4.70;;
4274;SDS011;2151;50.988;11.068;2023-11-19T06:26:01;112.90;;;4.60;;
4274;SDS011;2151;50.988;11.068;2023-11-19T06:28:27;112.87;;;4.93;;
4274;SDS011;2151;50.988;11.068;2023-11-19T06:30:55;112.97;;;4.73;;
4274;SDS011;2151;50.988;11.068;2023-11-19T06:33:22;112.60;;;4.63;;
4274;SDS011;2151;50.988;11.068;2023-11-19T06:35:48;112.67;;;4.77;;
4274;SDS011;2151;50.988;11.068;2023-11-19T06:38:15;112.23;;;4.70;;
4274;SDS011;2151;50.988;11.068;2023-11-19T06:40:42;112.70;;;5.03;;
4274;SDS011;2151;50.988;11.068;2023-11-19T06:43:09;112.30;;;4.80;;
4274;SDS011;2151;50.988;11.068;2023-11-19T06:45:35;113.50;;;4.53;;
4274;SDS011;2151;50.988;11.068;2023-11-19T06:48:05;113.23;;;4.67;;
4274;SDS011;2151;50.988;11.068;2023-11-19T06:50:33;113.77;;;5.17;;
4274;SDS011;2151;50.988;11.068;2023-11-19T06:53:00;112.33;;;4.70;;
4274;SDS011;2151;50.988;11.068;2023-11-19T06:55:26;111.80;;;4.50;;
4274;SDS011;2151;50.988;11.068;2023-11-19T06:57:53;111.90;;;4.70;;
4274;SDS011;2151;50.988;11.068;2023-11-19T07:00:20;112.67;;;5.17;;
4274;SDS011;2151;50.988;11.068;2023-11-19T07:02:46;112.27;;;4.77;;
4274;SDS011;2151;50.988;11.068;2023-11-19T07:05:13;112.37;;;4.90;;
4274;SDS011;2151;50.988;11.068;2023-11-19T07:07:39;114.80;;;5.27;;
4274;SDS011;2151;50.988;11.068;2023-11-19T07:10:07;113.07;;;4.73;;
4274;SDS011;2151;50.988;11.068;2023-11-19T07:12:35;112.77;;;4.77;;
4274;SDS011;2151;50.988;11.068;2023-11-19T07:15:02;115.30;;;5.10;;
4274;SDS011;2151;50.988;11.068;2023-11-19T07:17:30;113.47;;;5.07;;
4274;SDS011;2151;50.988;11.068;2023-11-19T07:19:57;114.00;;;4.80;;
4274;SDS011;2151;50.988;11.068;2023-11-19T07:22:26;114.13;;;5.33;;
4274;SDS011;2151;50.988;11.068;2023-11-19T07:24:57;117.30;;;5.47;;
4274;SDS011;2151;50.988;11.068;2023-11-19T07:27:23;113.47;;;5.03;;
4274;SDS011;2151;50.988;11.068;2023-11-19T07:29:50;113.30;;;4.93;;
4274;SDS011;2151;50.988;11.068;2023-11-19T07:32:17;114.80;;;4.77;;
4274;SDS011;2151;50.988;11.068;2023-11-19T07:34:44;112.67;;;5.00;;
4274;SDS011;2151;50.988;11.068;2023-11-19T07:37:11;111.80;;;4.80;;
4274;SDS011;2151;50.988;11.068;2023-11-19T07:39:38;114.40;;;5.10;;
4274;SDS011;2151;50.988;11.068;2023-11-19T07:42:07;113.80;;;4.60;;
4274;SDS011;2151;50.988;11.068;2023-11-19T07:44:34;114.10;;;5.70;;
4274;SDS011;2151;50.988;11.068;2023-11-19T07:47:03;111.90;;;5.00;;
4274;SDS011;2151;50.988;11.068;2023-11-19T07:49:29;118.00;;;5.00;;
4274;SDS011;2151;50.988;11.068;2023-11-19T07:51:57;114.07;;;5.07;;
4274;SDS011;2151;50.988;11.068;2023-11-19T07:54:23;115.77;;;5.10;;
4274;SDS011;2151;50.988;11.068;2023-11-19T07:56:50;113.60;;;4.90;;
4274;SDS011;2151;50.988;11.068;2023-11-19T07:59:17;113.67;;;5.27;;
4274;SDS011;2151;50.988;11.068;2023-11-19T08:01:43;115.90;;;5.00;;
4274;SDS011;2151;50.988;11.068;2023-11-19T08:04:09;111.53;;;4.60;;
4274;SDS011;2151;50.988;11.068;2023-11-19T08:06:36;114.60;;;5.20;;
4274;SDS011;2151;50.988;11.068;2023-11-19T08:09:03;113.63;;;5.10;;
4274;SDS011;2151;50.988;11.068;2023-11-19T08:11:29;114.20;;;5.67;;
4274;SDS011;2151;50.988;11.068;2023-11-19T08:13:56;115.67;;;5.67;;
4274;SDS011;2151;50.988;11.068;2023-11-19T08:16:22;113.03;;;5.37;;
4274;SDS011;2151;50.988;11.068;2023-11-19T08:18:49;116.00;;;5.40;;
4274;SDS011;2151;50.988;11.068;2023-11-19T08:21:15;114.90;;;4.70;;
4274;SDS011;2151;50.988;11.068;2023-11-19T08:23:42;113.97;;;5.10;;
4274;SDS011;2151;50.988;11.068;2023-11-19T08:26:08;118.80;;;5.40;;
4274;SDS011;2151;50.988;11.068;2023-11-19T08:28:37;114.33;;;5.47;;
4274;SDS011;2151;50.988;11.068;2023-11-19T08:31:04;112.90;;;5.17;;
4274;SDS011;2151;50.988;11.068;2023-11-19T08:33:31;111.57;;;4.90;;
4274;SDS011;2151;50.988;11.068;2023-11-19T08:35:58;113.30;;;5.00;;
4274;SDS011;2151;50.988;11.068;2023-11-19T08:38:24;114.17;;;5.57;;
4274;SDS011;2151;50.988;11.068;2023-11-19T08:40:56;113.03;;;4.90;;
4274;SDS011;2151;50.988;11.068;2023-11-19T08:43:26;110.50;;;4.53;;
4274;SDS011;2151;50.988;11.068;2023-11-19T08:45:52;114.40;;;4.90;;
4274;SDS011;2151;50.988;11.068;2023-11-19T08:48:19;112.13;;;4.77;;
4274;SDS011;2151;50.988;11.068;2023-11-19T08:50:45;111.97;;;4.70;;
4274;SDS011;2151;50.988;11.068;2023-11-19T08:53:12;113.87;;;4.80;;
4274;SDS011;2151;50.988;11.068;2023-11-19T08:55:39;116.73;;;4.70;;
4274;SDS011;2151;50.988;11.068;2023-11-19T08:58:06;117.70;;;5.33;;
4274;SDS011;2151;50.988;11.068;2023-11-19T09:00:33;120.50;;;5.30;;
4274;SDS011;2151;50.988;11.068;2023-11-19T09:03:00;113.50;;;5.00;;
4274;SDS011;2151;50.988;11.068;2023-11-19T09:05:26;118.67;;;5.70;;
4274;SDS011;2151;50.988;11.068;2023-11-19T09:07:53;114.50;;;5.07;;
4274;SDS011;2151;50.988;11.068;2023-11-19T09:10:19;122.47;;;5.43;;
4274;SDS011;2151;50.988;11.068;2023-11-19T09:12:46;116.33;;;4.93;;
4274;SDS011;2151;50.988;11.068;2023-11-19T09:15:12;114.37;;;5.50;;
4274;SDS011;2151;50.988;11.068;2023-11-19T09:17:39;112.80;;;5.17;;
4274;SDS011;2151;50.988;11.068;2023-11-19T09:20:07;118.10;;;5.90;;
4274;SDS011;2151;50.988;11.068;2023-11-19T09:22:34;114.43;;;5.00;;
4274;SDS011;2151;50.988;11.068;2023-11-19T09:25:01;115.37;;;5.00;;
4274;SDS011;2151;50.988;11.068;2023-11-19T09:27:27;120.07;;;6.03;;
4274;SDS011;2151;50.988;11.068;2023-11-19T09:29:54;122.27;;;5.63;;
4274;SDS011;2151;50.988;11.068;2023-11-19T09:32:24;113.27;;;5.27;;
4274;SDS011;2151;50.988;11.068;2023-11-19T09:34:51;121.87;;;5.70;;
4274;SDS011;2151;50.988;11.068;2023-11-19T09:37:18;122.40;;;6.40;;
4274;SDS011;2151;50.988;11.068;2023-11-19T09:39:47;122.30;;;5.47;;
4274;SDS011;2151;50.988;11.068;2023-11-19T09:42:14;125.33;;;6.07;;
4274;SDS011;2151;50.988;11.068;2023-11-19T09:44:41;117.13;;;5.80;;
4274;SDS011;2151;50.988;11.068;2023-11-19T09:47:11;119.63;;;5.73;;
4274;SDS011;2151;50.988;11.068;2023-11-19T09:49:39;116.07;;;5.83;;
4274;SDS011;2151;50.988;11.068;2023-11-19T09:52:06;118.50;;;6.37;;
4274;SDS011;2151;50.988;11.068;2023-11-19T09:54:33;115.40;;;5.90;;
4274;SDS011;2151;50.988;11.068;2023-11-19T09:56:59;118.60;;;5.50;;
4274;SDS011;2151;50.988;11.068;2023-11-19T09:59:30;120.27;;;5.63;;
4274;SDS011;2151;50.988;11.068;2023-11-19T10:01:57;115.83;;;4.90;;
4274;SDS011;2151;50.988;11.068;2023-11-19T10:04:24;117.47;;;5.67;;
4274;SDS011;2151;50.988;11.068;2023-11-19T10:06:52;121.73;;;5.40;;
4274;SDS011;2151;50.988;11.068;2023-11-19T10:09:18;116.80;;;6.40;;
4274;SDS011;2151;50.988;11.068;2023-11-19T10:11:45;114.57;;;6.30;;
4274;SDS011;2151;50.988;11.068;2023-11-19T10:14:14;116.43;;;5.50;;
4274;SDS011;2151;50.988;11.068;2023-11-19T10:16:41;120.73;;;6.30;;
4274;SDS011;2151;50.988;11.068;2023-11-19T10:19:09;116.57;;;5.43;;
4274;SDS011;2151;50.988;11.068;2023-11-19T10:21:38;115.77;;;5.43;;
4274;SDS011;2151;50.988;11.068;2023-11-19T10:24:05;121.37;;;5.53;;
4274;SDS011;2151;50.988;11.068;2023-11-19T10:26:33;130.23;;;5.60;;
4274;SDS011;2151;50.988;11.068;2023-11-19T10:29:02;125.27;;;5.93;;
4274;SDS011;2151;50.988;11.068;2023-11-19T10:31:31;116.30;;;5.40;;
4274;SDS011;2151;50.988;11.068;2023-11-19T10:33:57;113.77;;;5.47;;
4274;SDS011;2151;50.988;11.068;2023-11-19T10:36:37;116.07;;;5.70;;
4274;SDS011;2151;50.988;11.068;2023-11-19T10:39:03;118.97;;;5.73;;
4274;SDS011;2151;50.988;11.068;2023-11-19T10:41:30;117.80;;;5.67;;
4274;SDS011;2151;50.988;11.068;2023-11-19T10:44:00;120.77;;;5.33;;
4274;SDS011;2151;50.988;11.068;2023-11-19T10:46:36;121.27;;;6.00;;
4274;SDS011;2151;50.988;11.068;2023-11-19T10:49:02;117.63;;;5.80;;
4274;SDS011;2151;50.988;11.068;2023-11-19T10:51:29;117.30;;;5.80;;
4274;SDS011;2151;50.988;11.068;2023-11-19T10:53:56;120.37;;;7.10;;
4274;SDS011;2151;50.988;11.068;2023-11-19T10:56:28;120.00;;;5.93;;
4274;SDS011;2151;50.988;11.068;2023-11-19T10:58:57;124.07;;;5.37;;
4274;SDS011;2151;50.988;11.068;2023-11-19T11:01:26;115.80;;;5.50;;
4274;SDS011;2151;50.988;11.068;2023-11-19T11:03:55;116.20;;;5.90;;
4274;SDS011;2151;50.988;11.068;2023-11-19T11:06:23;111.40;;;5.10;;
4274;SDS011;2151;50.988;11.068;2023-11-19T11:08:50;115.40;;;5.30;;
4274;SDS011;2151;50.988;11.068;2023-11-19T11:11:17;125.67;;;5.90;;
4274;SDS011;2151;50.988;11.068;2023-11-19T11:13:47;117.60;;;6.03;;
4274;SDS011;2151;50.988;11.068;2023-11-19T11:16:13;120.27;;;5.30;;
4274;SDS011;2151;50.988;11.068;2023-11-19T11:18:40;115.80;;;4.90;;
4274;SDS011;2151;50.988;11.068;2023-11-19T11:21:09;119.90;;;5.80;;
4274;SDS011;2151;50.988;11.068;2023-11-19T11:31:26;120.70;;;5.27;;
4274;SDS011;2151;50.988;11.068;2023-11-19T11:34:02;119.47;;;5.90;;
4274;SDS011;2151;50.988;11.068;2023-11-19T11:36:36;125.87;;;5.77;;
4274;SDS011;2151;50.988;11.068;2023-11-19T11:39:05;120.53;;;6.13;;
4274;SDS011;2151;50.988;11.068;2023-11-19T11:41:34;113.47;;;5.30;;
4274;SDS011;2151;50.988;11.068;2023-11-19T11:44:00;117.80;;;5.63;;
4274;SDS011;2151;50.988;11.068;2023-11-19T11:49:07;113.60;;;5.50;;
4274;SDS011;2151;50.988;11.068;2023-11-19T11:59:51;120.30;;;6.43;;
4274;SDS011;2151;50.988;11.068;2023-11-19T12:02:21;119.47;;;5.83;;
4274;SDS011;2151;50.988;11.068;2023-11-19T12:04:49;132.87;;;5.50;;
4274;SDS011;2151;50.988;11.068;2023-11-19T12:07:21;115.80;;;5.77;;
4274;SDS011;2151;50.988;11.068;2023-11-19T12:10:05;116.00;;;5.47;;
4274;SDS011;2151;50.988;11.068;2023-11-19T12:12:34;116.43;;;6.00;;
4274;SDS011;2151;50.988;11.068;2023-11-19T12:15:02;113.07;;;4.70;;
4274;SDS011;2151;50.988;11.068;2023-11-19T12:17:37;118.00;;;5.40;;
4274;SDS011;2151;50.988;11.068;2023-11-19T12:20:05;122.00;;;5.90;;
4274;SDS011;2151;50.988;11.068;2023-11-19T12:22:59;115.70;;;6.00;;
4274;SDS011;2151;50.988;11.068;2023-11-19T12:25:33;118.57;;;5.70;;
4274;SDS011;2151;50.988;11.068;2023-11-19T12:28:01;117.77;;;6.00;;
4274;SDS011;2151;50.988;11.068;2023-11-19T12:30:31;117.40;;;5.50;;
4274;SDS011;2151;50.988;11.068;2023-11-19T12:32:57;119.57;;;5.47;;
4274;SDS011;2151;50.988;11.068;2023-11-19T12:35:24;116.60;;;5.70;;
4274;SDS011;2151;50.988;11.068;2023-11-19T12:37:53;119.53;;;6.00;;
4274;SDS011;2151;50.988;11.068;2023-11-19T12:40:23;117.60;;;5.50;;
4274;SDS011;2151;50.988;11.068;2023-11-19T12:42:54;115.30;;;5.33;;
4274;SDS011;2151;50.988;11.068;2023-11-19T12:45:21;118.70;;;5.13;;
4274;SDS011;2151;50.988;11.068;2023-11-19T12:48:04;124.43;;;6.00;;
4274;SDS011;2151;50.988;11.068;2023-11-19T12:50:49;117.40;;;5.53;;
4274;SDS011;2151;50.988;11.068;2023-11-19T12:53:16;115.00;;;5.23;;
4274;SDS011;2151;50.988;11.068;2023-11-19T12:55:42;122.07;;;5.83;;
4274;SDS011;2151;50.988;11.068;2023-11-19T12:58:09;123.70;;;6.53;;
4274;SDS011;2151;50.988;11.068;2023-11-19T13:00:35;121.77;;;6.00;;
4274;SDS011;2151;50.988;11.068;2023-11-19T13:03:02;119.00;;;5.83;;
4274;SDS011;2151;50.988;11.068;2023-11-19T13:05:32;116.00;;;5.93;;
4274;SDS011;2151;50.988;11.068;2023-11-19T13:10:29;116.83;;;5.77;;
4274;SDS011;2151;50.988;11.068;2023-11-19T13:13:14;117.63;;;5.30;;
4274;SDS011;2151;50.988;11.068;2023-11-19T13:15:40;114.13;;;5.57;;
4274;SDS011;2151;50.988;11.068;2023-11-19T13:18:07;123.17;;;6.77;;
4274;SDS011;2151;50.988;11.068;2023-11-19T13:20:33;117.70;;;5.63;;
4274;SDS011;2151;50.988;11.068;2023-11-19T13:23:01;127.80;;;6.00;;
4274;SDS011;2151;50.988;11.068;2023-11-19T13:25:28;118.73;;;5.60;;
4274;SDS011;2151;50.988;11.068;2023-11-19T13:27:55;121.33;;;5.70;;
4274;SDS011;2151;50.988;11.068;2023-11-19T13:30:22;116.80;;;5.43;;
4274;SDS011;2151;50.988;11.068;2023-11-19T13:32:53;122.50;;;6.13;;
4274;SDS011;2151;50.988;11.068;2023-11-19T13:35:22;116.00;;;5.23;;
4274;SDS011;2151;50.988;11.068;2023-11-19T13:37:49;120.70;;;5.43;;
4274;SDS011;2151;50.988;11.068;2023-11-19T13:40:15;114.80;;;5.37;;
4274;SDS011;2151;50.988;11.068;2023-11-19T13:42:42;126.50;;;5.90;;
4274;SDS011;2151;50.988;11.068;2023-11-19T13:45:11;124.10;;;5.20;;
4274;SDS011;2151;50.988;11.068;2023-11-19T13:47:39;121.63;;;6.40;;
4274;SDS011;2151;50.988;11.068;2023-11-19T13:50:09;113.97;;;5.90;;
4274;SDS011;2151;50.988;11.068;2023-11-19T13:52:37;124.40;;;6.20;;
4274;SDS011;2151;50.988;11.068;2023-11-19T13:55:07;120.63;;;5.37;;
4274;SDS011;2151;50.988;11.068;2023-11-19T13:57:41;115.93;;;6.60;;
4274;SDS011;2151;50.988;11.068;2023-11-19T14:00:08;115.83;;;5.60;;
4274;SDS011;2151;50.988;11.068;2023-11-19T14:02:47;117.60;;;5.50;;
4274;SDS011;2151;50.988;11.068;2023-11-19T14:05:15;119.40;;;5.80;;
4274;SDS011;2151;50.988;11.068;2023-11-19T14:08:02;117.47;;;5.70;;
4274;SDS011;2151;50.988;11.068;2023-11-19T14:10:33;121.03;;;5.90;;
4274;SDS011;2151;50.988;11.068;2023-11-19T14:13:00;117.33;;;5.57;;
4274;SDS011;2151;50.988;11.068;2023-11-19T14:15:26;120.90;;;6.20;;
4274;SDS011;2151;50.988;11.068;2023-11-19T14:17:53;117.83;;;5.70;;
4274;SDS011;2151;50.988;11.068;2023-11-19T14:20:19;119.53;;;5.70;;
4274;SDS011;2151;50.988;11.068;2023-11-19T14:22:47;117.03;;;5.90;;
4274;SDS011;2151;50.988;11.068;2023-11-19T14:25:15;117.37;;;5.77;;
4274;SDS011;2151;50.988;11.068;2023-11-19T14:27:42;124.87;;;6.30;;
4274;SDS011;2151;50.988;11.068;2023-11-19T14:30:10;126.20;;;6.00;;
4274;SDS011;2151;50.988;11.068;2023-11-19T14:32:42;122.97;;;6.07;;
4274;SDS011;2151;50.988;11.068;2023-11-19T14:35:10;126.17;;;6.53;;
4274;SDS011;2151;50.988;11.068;2023-11-19T14:37:37;121.80;;;6.03;;
4274;SDS011;2151;50.988;11.068;2023-11-19T14:40:03;123.37;;;5.20;;
4274;SDS011;2151;50.988;11.068;2023-11-19T14:42:31;116.30;;;5.70;;
4274;SDS011;2151;50.988;11.068;2023-11-19T14:44:58;119.30;;;6.00;;
4274;SDS011;2151;50.988;11.068;2023-11-19T14:47:25;123.77;;;5.90;;
4274;SDS011;2151;50.988;11.068;2023-11-19T14:49:51;115.00;;;5.20;;
4274;SDS011;2151;50.988;11.068;2023-11-19T14:52:18;116.67;;;5.97;;
4274;SDS011;2151;50.988;11.068;2023-11-19T14:54:44;128.03;;;6.30;;
4274;SDS011;2151;50.988;11.068;2023-11-19T14:57:11;122.27;;;6.23;;